Siam — SGIP — position and weather

sailwx.info

Track history (hours):
 
Tides and Currents Weather Stations Pressure Air Temp Water Temp Dewpoint Dewpoint Depression Visibility Wind Speed Wind Dir Waves Ship Positions

Siam

Last reported at 2014-Sep-23 17:33 UTC. Time now 2014-Sep-23 18:29 UTC.
Position N 55°60' E 012°45'.

Length 22 m.

Type: Passenger vessel. MMSI: 265572320.

Date/timePositionNaut miles runAvg speedWind from/ knotsBaromVisibWave heightAir tempDewpointWater temp
2014-Sep-23 17:33N 55°60' E 012°45'0 0.0
2014-Sep-23 16:32N 55°60' E 012°45'0 0.0
2014-Sep-23 15:32N 55°60' E 012°45'0 0.0
2014-Sep-23 14:32N 55°60' E 012°45'0 0.0
2014-Sep-23 13:32N 55°60' E 012°45'0 0.0
2014-Sep-23 12:32N 55°60' E 012°45'0 0.0
2014-Sep-23 11:26N 55°60' E 012°45'0 0.0
2014-Sep-23 10:32N 55°60' E 012°45'0 0.0
2014-Sep-23 09:32N 55°60' E 012°45'0 0.0
2014-Sep-23 08:32N 55°60' E 012°45'0 0.0
2014-Sep-23 07:32N 55°60' E 012°45'0 0.0
2014-Sep-23 06:32N 55°60' E 012°45'0 0.0
2014-Sep-23 05:32N 55°60' E 012°45'0 0.0
2014-Sep-23 04:32N 55°60' E 012°45'0 0.0
2014-Sep-23 03:32N 55°60' E 012°45'0 0.0
2014-Sep-23 02:32N 55°60' E 012°45'0 0.0
2014-Sep-23 01:32N 55°60' E 012°45'0 0.0
2014-Sep-23 00:32N 55°60' E 012°45'0 0.0
2014-Sep-22 23:32N 55°60' E 012°45'0 0.0
2014-Sep-22 22:32N 55°60' E 012°45'0 0.0
2014-Sep-22 21:32N 55°60' E 012°45'0 0.0
2014-Sep-22 20:32N 55°60' E 012°45'0 0.0
2014-Sep-22 19:32N 55°60' E 012°45'0 0.0
2014-Sep-22 18:32N 55°60' E 012°45'0 0.0
2014-Sep-22 17:32N 55°60' E 012°45'0 0.0
2014-Sep-22 16:32N 55°60' E 012°45'0 0.0
2014-Sep-22 15:32N 55°60' E 012°45'0 0.0
2014-Sep-22 14:32N 55°60' E 012°45'0 0.0
2014-Sep-22 13:32N 55°60' E 012°45'0 0.0
2014-Sep-22 12:26N 55°60' E 012°45'0 0.0
2014-Sep-22 02:32N 55°60' E 012°45'0 0.0
2014-Sep-22 01:32N 55°60' E 012°45'0 0.0
2014-Sep-22 00:32N 55°60' E 012°45'0 0.0
2014-Sep-21 23:32N 55°60' E 012°45'0 0.0
2014-Sep-21 22:32N 55°60' E 012°45'0 0.0
2014-Sep-21 21:32N 55°60' E 012°45'0 0.0
2014-Sep-21 20:32N 55°60' E 012°45'0 0.0
2014-Sep-21 19:32N 55°60' E 012°45'0 0.0
2014-Sep-21 18:32N 55°60' E 012°45'0 0.0
2014-Sep-21 17:32N 55°60' E 012°45'0 0.0
2014-Sep-21 16:32N 55°60' E 012°45'0 0.0
2014-Sep-21 15:32N 55°60' E 012°45'0 0.0
2014-Sep-21 14:32N 55°60' E 012°45'4 3.8
2014-Sep-21 13:30N 55°56' E 012°41'0 0.2
2014-Sep-21 12:31N 55°56' E 012°41'1 0.9
2014-Sep-21 11:33N 55°56' E 012°42'4 4.1
2014-Sep-21 10:31N 55°60' E 012°45'4 4.3
2014-Sep-21 09:33N 55°56' E 012°42'1 0.6
2014-Sep-21 08:31N 55°56' E 012°41'1 1.0
2014-Sep-21 07:33N 55°55' E 012°43'1 0.5
2014-Sep-21 06:32N 55°56' E 012°42'4 4.1
2014-Sep-21 05:33N 55°60' E 012°45'0 0.0
2014-Sep-21 04:33N 55°60' E 012°45'0 0.0
2014-Sep-21 03:33N 55°60' E 012°45'0 0.0
2014-Sep-21 02:33N 55°60' E 012°45'0 0.0
2014-Sep-21 01:33N 55°60' E 012°45'0 0.0
2014-Sep-21 00:33N 55°60' E 012°45'0 0.0
2014-Sep-20 23:33N 55°60' E 012°45'0 0.0
2014-Sep-20 22:33N 55°60' E 012°45'0 0.0
2014-Sep-20 21:33N 55°60' E 012°45'0 0.0
2014-Sep-20 20:33N 55°60' E 012°45'0 0.0
2014-Sep-20 19:33N 55°60' E 012°45'0 0.0
2014-Sep-20 18:33N 55°60' E 012°45'0 0.0
2014-Sep-20 17:33N 55°60' E 012°45'0 0.0
2014-Sep-20 16:33N 55°60' E 012°45'1 0.7
2014-Sep-20 15:33N 55°59' E 012°44'4 3.7
2014-Sep-20 14:31N 55°56' E 012°40'1 0.7
2014-Sep-20 13:29N 55°56' E 012°39'0 0.2
2014-Sep-20 12:30N 55°56' E 012°39'0 0.2
2014-Sep-20 11:33N 55°55' E 012°39'5 5.1
2014-Sep-20 10:31N 55°60' E 012°45'4 3.7
2014-Sep-20 09:33N 55°56' E 012°43'1 0.6
2014-Sep-20 08:32N 55°56' E 012°42'1 0.5
2014-Sep-20 07:18N 55°56' E 012°41'1 0.8
2014-Sep-20 06:33N 55°57' E 012°41'3 3.4
2014-Sep-20 05:32N 55°60' E 012°45'0 0.0
2014-Sep-20 04:32N 55°60' E 012°45'0 0.0
2014-Sep-20 03:32N 55°60' E 012°45'0 0.0
2014-Sep-20 02:32N 55°60' E 012°45'0 0.0
2014-Sep-20 01:32N 55°60' E 012°45'0 0.0
2014-Sep-20 00:32N 55°60' E 012°45'0 0.0
2014-Sep-19 23:32N 55°60' E 012°45'0 0.0
2014-Sep-19 22:32N 55°60' E 012°45'0 0.0
2014-Sep-19 21:32N 55°60' E 012°45'0 0.0
2014-Sep-19 20:29N 55°60' E 012°45'0 0.0
2014-Sep-19 19:32N 55°60' E 012°45'0 0.0
2014-Sep-19 18:32N 55°60' E 012°45'0 0.0
2014-Sep-19 17:32N 55°60' E 012°45'0 0.0
2014-Sep-19 16:32N 55°60' E 012°45'0 0.0
2014-Sep-19 15:32N 55°60' E 012°45'0 0.0
2014-Sep-19 14:32N 55°60' E 012°45'0 0.0
2014-Sep-19 13:32N 55°60' E 012°45'0 0.0
2014-Sep-19 12:32N 55°60' E 012°45'2 2.1
2014-Sep-19 11:32N 55°59' E 012°41'3 3.0
2014-Sep-19 10:32N 55°56' E 012°42'0 0.3
2014-Sep-19 09:32N 55°56' E 012°43'1 0.5
2014-Sep-19 08:30N 55°56' E 012°42'2 2.5
2014-Sep-19 07:33N 55°58' E 012°42'0 0.3
2014-Sep-19 06:33N 55°59' E 012°42'2 1.6
2014-Sep-19 05:33N 55°60' E 012°45'0 0.0
2014-Sep-19 04:33N 55°60' E 012°45'0 0.0
2014-Sep-19 03:33N 55°60' E 012°45'0 0.0
2014-Sep-19 02:33N 55°60' E 012°45'0 0.0
2014-Sep-19 01:33N 55°60' E 012°45'0 0.0
2014-Sep-19 00:33N 55°60' E 012°45'0 0.0
2014-Sep-18 23:33N 55°60' E 012°45'0 0.0
2014-Sep-18 22:33N 55°60' E 012°45'0 0.0
2014-Sep-18 21:33N 55°60' E 012°45'0 0.0
2014-Sep-18 20:30N 55°60' E 012°45'0 0.0
2014-Sep-18 19:33N 55°60' E 012°45'0 0.0
2014-Sep-18 18:33N 55°60' E 012°45'0 0.0
2014-Sep-18 17:30N 55°60' E 012°45'0 0.0
2014-Sep-18 16:33N 55°60' E 012°45'0 0.0
2014-Sep-18 15:33N 55°60' E 012°45'0 0.0
2014-Sep-18 14:33N 55°60' E 012°45'0 0.0
2014-Sep-18 13:33N 55°60' E 012°45'0 0.0
2014-Sep-18 12:33N 55°60' E 012°45'0 0.0
2014-Sep-18 11:33N 55°60' E 012°45'0 0.0
2014-Sep-18 10:33N 55°60' E 012°45'0 0.0
2014-Sep-18 09:33N 55°60' E 012°45'0 0.0
2014-Sep-18 08:33N 55°60' E 012°45'0 0.0
2014-Sep-18 07:33N 55°60' E 012°45'0 0.0
2014-Sep-18 06:33N 55°60' E 012°45'0 0.0
2014-Sep-18 05:33N 55°60' E 012°45'0 0.0
2014-Sep-18 04:21N 55°60' E 012°45'0 0.0
2014-Sep-18 03:33N 55°60' E 012°45'0 0.0
2014-Sep-18 02:30N 55°60' E 012°45'0 0.0
2014-Sep-18 01:33N 55°60' E 012°45'0 0.0
2014-Sep-18 00:33N 55°60' E 012°45'0 0.0
2014-Sep-17 23:33N 55°60' E 012°45'0 0.0
2014-Sep-17 22:33N 55°60' E 012°45'0 0.0
2014-Sep-17 21:33N 55°60' E 012°45'0 0.0
2014-Sep-17 20:33N 55°60' E 012°45'0 0.0
2014-Sep-17 19:33N 55°60' E 012°45'0 0.0
2014-Sep-17 18:33N 55°60' E 012°45'4 4.2
2014-Sep-17 17:33N 55°56' E 012°41'1 0.7
2014-Sep-17 16:33N 55°55' E 012°42'1 0.5
2014-Sep-17 15:30N 55°56' E 012°42'4 4.2
2014-Sep-17 14:33N 55°60' E 012°45'0 0.0
2014-Sep-17 13:33N 55°60' E 012°45'0 0.0
2014-Sep-17 12:33N 55°60' E 012°45'0 0.0
2014-Sep-17 11:33N 55°60' E 012°45'0 0.0
2014-Sep-17 10:30N 55°60' E 012°45'4 3.9
2014-Sep-17 09:31N 55°56' E 012°42'0 0.4
2014-Sep-17 08:32N 55°56' E 012°43'1 0.6
2014-Sep-17 07:34N 55°56' E 012°42'0 0.3
2014-Sep-17 06:31N 55°56' E 012°42'3 3.5
2014-Sep-17 05:32N 55°60' E 012°45'0 0.0
2014-Sep-17 04:32N 55°60' E 012°45'0 0.0
2014-Sep-17 03:32N 55°60' E 012°45'0 0.0
2014-Sep-17 02:26N 55°60' E 012°45'0 0.0
2014-Sep-17 01:32N 55°60' E 012°45'0 0.0
2014-Sep-17 00:32N 55°60' E 012°45'0 0.0
2014-Sep-16 23:32N 55°60' E 012°45'0 0.0
2014-Sep-16 22:32N 55°60' E 012°45'0 0.0
2014-Sep-16 21:32N 55°60' E 012°45'0 0.0
2014-Sep-16 20:26N 55°60' E 012°45'0 0.0
2014-Sep-16 19:29N 55°60' E 012°45'0 0.0
2014-Sep-16 18:32N 55°60' E 012°45'0 0.0
2014-Sep-16 17:32N 55°60' E 012°45'0 0.0
2014-Sep-16 16:32N 55°60' E 012°45'0 0.0
2014-Sep-16 15:32N 55°60' E 012°45'0 0.0
2014-Sep-16 14:32N 55°60' E 012°45'0 0.0
2014-Sep-16 13:32N 55°60' E 012°45'0 0.0
2014-Sep-16 12:32N 55°60' E 012°45'0 0.0
2014-Sep-16 11:32N 55°60' E 012°45'0 0.0
2014-Sep-16 10:32N 55°60' E 012°45'4 4.4
2014-Sep-16 09:33N 55°55' E 012°42'0 0.3
2014-Sep-16 08:33N 55°56' E 012°42'0 0.3
2014-Sep-16 07:31N 55°56' E 012°42'0 0.2
2014-Sep-16 06:33N 55°56' E 012°42'4 3.5
2014-Sep-16 05:32N 55°60' E 012°45'0 0.0
2014-Sep-16 04:32N 55°60' E 012°45'0 0.0
2014-Sep-16 03:29N 55°60' E 012°45'0 0.0
2014-Sep-16 02:32N 55°60' E 012°45'0 0.0
2014-Sep-16 01:32N 55°60' E 012°45'0 0.0
2014-Sep-16 00:29N 55°60' E 012°45'0 0.0
2014-Sep-15 23:29N 55°60' E 012°45'0 0.0
2014-Sep-15 22:32N 55°60' E 012°45'0 0.0
2014-Sep-15 21:32N 55°60' E 012°45'0 0.0
2014-Sep-15 20:32N 55°60' E 012°45'0 0.0
2014-Sep-15 19:32N 55°60' E 012°45'0 0.0
2014-Sep-15 18:32N 55°60' E 012°45'0 0.0
2014-Sep-15 17:29N 55°60' E 012°45'0 0.0
2014-Sep-15 16:32N 55°60' E 012°45'0 0.0
2014-Sep-15 15:32N 55°60' E 012°45'0 0.0
2014-Sep-15 14:32N 55°60' E 012°45'0 0.0
2014-Sep-15 13:33N 55°60' E 012°45'0 0.0
2014-Sep-15 12:33N 55°60' E 012°45'0 0.0
2014-Sep-15 11:33N 55°60' E 012°45'0 0.0
2014-Sep-15 10:33N 55°60' E 012°45'0 0.0
2014-Sep-15 09:33N 55°60' E 012°45'0 0.0
2014-Sep-15 08:33N 55°60' E 012°45'0 0.0
2014-Sep-15 07:33N 55°60' E 012°45'0 0.0
2014-Sep-15 06:33N 55°60' E 012°45'0 0.0
2014-Sep-15 05:33N 55°60' E 012°45'0 0.0
2014-Sep-15 04:33N 55°60' E 012°45'0 0.0
2014-Sep-15 03:33N 55°60' E 012°45'0 0.0
2014-Sep-15 02:33N 55°60' E 012°45'0 0.0
2014-Sep-15 01:33N 55°60' E 012°45'0 0.0
2014-Sep-15 00:33N 55°60' E 012°45'0 0.0
2014-Sep-14 23:33N 55°60' E 012°45'0 0.0
2014-Sep-14 22:33N 55°60' E 012°45'0 0.0
2014-Sep-14 21:33N 55°60' E 012°45'0 0.0
2014-Sep-14 20:33N 55°60' E 012°45'0 0.0
2014-Sep-14 19:33N 55°60' E 012°45'0 0.0
2014-Sep-14 18:33N 55°60' E 012°45'0 0.0
2014-Sep-14 17:33N 55°60' E 012°45'0 0.0
2014-Sep-14 16:33N 55°60' E 012°45'0 0.0
2014-Sep-14 15:33N 55°60' E 012°45'4 4.3
2014-Sep-14 14:33N 55°56' E 012°41'1 1.1
2014-Sep-14 13:32N 55°56' E 012°43'0 0.3
2014-Sep-14 12:33N 55°55' E 012°44'1 1.4
2014-Sep-14 11:32N 55°56' E 012°42'4 3.6
2014-Sep-14 10:31N 55°60' E 012°45'4 3.7
2014-Sep-14 09:32N 55°56' E 012°41'1 0.7
2014-Sep-14 08:32N 55°57' E 012°42'1 1.3
2014-Sep-14 07:32N 55°58' E 012°42'1 0.6
2014-Sep-14 06:32N 55°59' E 012°42'2 1.5
2014-Sep-14 05:31N 55°60' E 012°45'0 0.0
2014-Sep-14 04:31N 55°60' E 012°45'0 0.0
2014-Sep-14 03:31N 55°60' E 012°45'0 0.0
2014-Sep-14 02:31N 55°60' E 012°45'0 0.0
2014-Sep-14 01:32N 55°60' E 012°45'0 0.0
2014-Sep-13 21:29N 55°60' E 012°45'0 0.0
2014-Sep-13 20:32N 55°60' E 012°45'0 0.0
2014-Sep-13 19:32N 55°60' E 012°45'0 0.0
2014-Sep-13 18:29N 55°60' E 012°45'  
Track history (hours):
 
Tides and Currents Weather Stations Pressure Air Temp Water Temp Dewpoint Dewpoint Depression Visibility Wind Speed Wind Dir Waves Ship Positions

Siam

Last reported at 2014-Sep-23 17:33 UTC. Time now 2014-Sep-23 18:29 UTC.
Position N 55°60' E 012°45'.

Length 22 m.

Type: Passenger vessel. MMSI: 265572320.

Date/timePositionNaut miles runAvg speedWind from/ knotsBaromVisibWave heightAir tempDewpointWater temp
2014-Sep-23 17:33N 55°60' E 012°45'0 0.0
2014-Sep-23 16:32N 55°60' E 012°45'0 0.0
2014-Sep-23 15:32N 55°60' E 012°45'0 0.0
2014-Sep-23 14:32N 55°60' E 012°45'0 0.0
2014-Sep-23 13:32N 55°60' E 012°45'0 0.0
2014-Sep-23 12:32N 55°60' E 012°45'0 0.0
2014-Sep-23 11:26N 55°60' E 012°45'0 0.0
2014-Sep-23 10:32N 55°60' E 012°45'0 0.0
2014-Sep-23 09:32N 55°60' E 012°45'0 0.0
2014-Sep-23 08:32N 55°60' E 012°45'0 0.0
2014-Sep-23 07:32N 55°60' E 012°45'0 0.0
2014-Sep-23 06:32N 55°60' E 012°45'0 0.0
2014-Sep-23 05:32N 55°60' E 012°45'0 0.0
2014-Sep-23 04:32N 55°60' E 012°45'0 0.0
2014-Sep-23 03:32N 55°60' E 012°45'0 0.0
2014-Sep-23 02:32N 55°60' E 012°45'0 0.0
2014-Sep-23 01:32N 55°60' E 012°45'0 0.0
2014-Sep-23 00:32N 55°60' E 012°45'0 0.0
2014-Sep-22 23:32N 55°60' E 012°45'0 0.0
2014-Sep-22 22:32N 55°60' E 012°45'0 0.0
2014-Sep-22 21:32N 55°60' E 012°45'0 0.0
2014-Sep-22 20:32N 55°60' E 012°45'0 0.0
2014-Sep-22 19:32N 55°60' E 012°45'0 0.0
2014-Sep-22 18:32N 55°60' E 012°45'0 0.0
2014-Sep-22 17:32N 55°60' E 012°45'0 0.0
2014-Sep-22 16:32N 55°60' E 012°45'0 0.0
2014-Sep-22 15:32N 55°60' E 012°45'0 0.0
2014-Sep-22 14:32N 55°60' E 012°45'0 0.0
2014-Sep-22 13:32N 55°60' E 012°45'0 0.0
2014-Sep-22 12:26N 55°60' E 012°45'0 0.0
2014-Sep-22 02:32N 55°60' E 012°45'0 0.0
2014-Sep-22 01:32N 55°60' E 012°45'0 0.0
2014-Sep-22 00:32N 55°60' E 012°45'0 0.0
2014-Sep-21 23:32N 55°60' E 012°45'0 0.0
2014-Sep-21 22:32N 55°60' E 012°45'0 0.0
2014-Sep-21 21:32N 55°60' E 012°45'0 0.0
2014-Sep-21 20:32N 55°60' E 012°45'0 0.0
2014-Sep-21 19:32N 55°60' E 012°45'0 0.0
2014-Sep-21 18:32N 55°60' E 012°45'0 0.0
2014-Sep-21 17:32N 55°60' E 012°45'0 0.0
2014-Sep-21 16:32N 55°60' E 012°45'0 0.0
2014-Sep-21 15:32N 55°60' E 012°45'0 0.0
2014-Sep-21 14:32N 55°60' E 012°45'4 3.8
2014-Sep-21 13:30N 55°56' E 012°41'0 0.2
2014-Sep-21 12:31N 55°56' E 012°41'1 0.9
2014-Sep-21 11:33N 55°56' E 012°42'4 4.1
2014-Sep-21 10:31N 55°60' E 012°45'4 4.3
2014-Sep-21 09:33N 55°56' E 012°42'1 0.6
2014-Sep-21 08:31N 55°56' E 012°41'1 1.0
2014-Sep-21 07:33N 55°55' E 012°43'1 0.5
2014-Sep-21 06:32N 55°56' E 012°42'4 4.1
2014-Sep-21 05:33N 55°60' E 012°45'0 0.0
2014-Sep-21 04:33N 55°60' E 012°45'0 0.0
2014-Sep-21 03:33N 55°60' E 012°45'0 0.0
2014-Sep-21 02:33N 55°60' E 012°45'0 0.0
2014-Sep-21 01:33N 55°60' E 012°45'0 0.0
2014-Sep-21 00:33N 55°60' E 012°45'0 0.0
2014-Sep-20 23:33N 55°60' E 012°45'0 0.0
2014-Sep-20 22:33N 55°60' E 012°45'0 0.0
2014-Sep-20 21:33N 55°60' E 012°45'0 0.0
2014-Sep-20 20:33N 55°60' E 012°45'0 0.0
2014-Sep-20 19:33N 55°60' E 012°45'0 0.0
2014-Sep-20 18:33N 55°60' E 012°45'0 0.0
2014-Sep-20 17:33N 55°60' E 012°45'0 0.0
2014-Sep-20 16:33N 55°60' E 012°45'1 0.7
2014-Sep-20 15:33N 55°59' E 012°44'4 3.7
2014-Sep-20 14:31N 55°56' E 012°40'1 0.7
2014-Sep-20 13:29N 55°56' E 012°39'0 0.2
2014-Sep-20 12:30N 55°56' E 012°39'0 0.2
2014-Sep-20 11:33N 55°55' E 012°39'5 5.1
2014-Sep-20 10:31N 55°60' E 012°45'4 3.7
2014-Sep-20 09:33N 55°56' E 012°43'1 0.6
2014-Sep-20 08:32N 55°56' E 012°42'1 0.5
2014-Sep-20 07:18N 55°56' E 012°41'1 0.8
2014-Sep-20 06:33N 55°57' E 012°41'3 3.4
2014-Sep-20 05:32N 55°60' E 012°45'0 0.0
2014-Sep-20 04:32N 55°60' E 012°45'0 0.0
2014-Sep-20 03:32N 55°60' E 012°45'0 0.0
2014-Sep-20 02:32N 55°60' E 012°45'0 0.0
2014-Sep-20 01:32N 55°60' E 012°45'0 0.0
2014-Sep-20 00:32N 55°60' E 012°45'0 0.0
2014-Sep-19 23:32N 55°60' E 012°45'0 0.0
2014-Sep-19 22:32N 55°60' E 012°45'0 0.0
2014-Sep-19 21:32N 55°60' E 012°45'0 0.0
2014-Sep-19 20:29N 55°60' E 012°45'0 0.0
2014-Sep-19 19:32N 55°60' E 012°45'0 0.0
2014-Sep-19 18:32N 55°60' E 012°45'0 0.0
2014-Sep-19 17:32N 55°60' E 012°45'0 0.0
2014-Sep-19 16:32N 55°60' E 012°45'0 0.0
2014-Sep-19 15:32N 55°60' E 012°45'0 0.0
2014-Sep-19 14:32N 55°60' E 012°45'0 0.0
2014-Sep-19 13:32N 55°60' E 012°45'0 0.0
2014-Sep-19 12:32N 55°60' E 012°45'2 2.1
2014-Sep-19 11:32N 55°59' E 012°41'3 3.0
2014-Sep-19 10:32N 55°56' E 012°42'0 0.3
2014-Sep-19 09:32N 55°56' E 012°43'1 0.5
2014-Sep-19 08:30N 55°56' E 012°42'2 2.5
2014-Sep-19 07:33N 55°58' E 012°42'0 0.3
2014-Sep-19 06:33N 55°59' E 012°42'2 1.6
2014-Sep-19 05:33N 55°60' E 012°45'0 0.0
2014-Sep-19 04:33N 55°60' E 012°45'0 0.0
2014-Sep-19 03:33N 55°60' E 012°45'0 0.0
2014-Sep-19 02:33N 55°60' E 012°45'0 0.0
2014-Sep-19 01:33N 55°60' E 012°45'0 0.0
2014-Sep-19 00:33N 55°60' E 012°45'0 0.0
2014-Sep-18 23:33N 55°60' E 012°45'0 0.0
2014-Sep-18 22:33N 55°60' E 012°45'0 0.0
2014-Sep-18 21:33N 55°60' E 012°45'0 0.0
2014-Sep-18 20:30N 55°60' E 012°45'0 0.0
2014-Sep-18 19:33N 55°60' E 012°45'0 0.0
2014-Sep-18 18:33N 55°60' E 012°45'0 0.0
2014-Sep-18 17:30N 55°60' E 012°45'0 0.0
2014-Sep-18 16:33N 55°60' E 012°45'0 0.0
2014-Sep-18 15:33N 55°60' E 012°45'0 0.0
2014-Sep-18 14:33N 55°60' E 012°45'0 0.0
2014-Sep-18 13:33N 55°60' E 012°45'0 0.0
2014-Sep-18 12:33N 55°60' E 012°45'0 0.0
2014-Sep-18 11:33N 55°60' E 012°45'0 0.0
2014-Sep-18 10:33N 55°60' E 012°45'0 0.0
2014-Sep-18 09:33N 55°60' E 012°45'0 0.0
2014-Sep-18 08:33N 55°60' E 012°45'0 0.0
2014-Sep-18 07:33N 55°60' E 012°45'0 0.0
2014-Sep-18 06:33N 55°60' E 012°45'0 0.0
2014-Sep-18 05:33N 55°60' E 012°45'0 0.0
2014-Sep-18 04:21N 55°60' E 012°45'0 0.0
2014-Sep-18 03:33N 55°60' E 012°45'0 0.0
2014-Sep-18 02:30N 55°60' E 012°45'0 0.0
2014-Sep-18 01:33N 55°60' E 012°45'0 0.0
2014-Sep-18 00:33N 55°60' E 012°45'0 0.0
2014-Sep-17 23:33N 55°60' E 012°45'0 0.0
2014-Sep-17 22:33N 55°60' E 012°45'0 0.0
2014-Sep-17 21:33N 55°60' E 012°45'0 0.0
2014-Sep-17 20:33N 55°60' E 012°45'0 0.0
2014-Sep-17 19:33N 55°60' E 012°45'0 0.0
2014-Sep-17 18:33N 55°60' E 012°45'4 4.2
2014-Sep-17 17:33N 55°56' E 012°41'1 0.7
2014-Sep-17 16:33N 55°55' E 012°42'1 0.5
2014-Sep-17 15:30N 55°56' E 012°42'4 4.2
2014-Sep-17 14:33N 55°60' E 012°45'0 0.0
2014-Sep-17 13:33N 55°60' E 012°45'0 0.0
2014-Sep-17 12:33N 55°60' E 012°45'0 0.0
2014-Sep-17 11:33N 55°60' E 012°45'0 0.0
2014-Sep-17 10:30N 55°60' E 012°45'4 3.9
2014-Sep-17 09:31N 55°56' E 012°42'0 0.4
2014-Sep-17 08:32N 55°56' E 012°43'1 0.6
2014-Sep-17 07:34N 55°56' E 012°42'0 0.3
2014-Sep-17 06:31N 55°56' E 012°42'3 3.5
2014-Sep-17 05:32N 55°60' E 012°45'0 0.0
2014-Sep-17 04:32N 55°60' E 012°45'0 0.0
2014-Sep-17 03:32N 55°60' E 012°45'0 0.0
2014-Sep-17 02:26N 55°60' E 012°45'0 0.0
2014-Sep-17 01:32N 55°60' E 012°45'0 0.0
2014-Sep-17 00:32N 55°60' E 012°45'0 0.0
2014-Sep-16 23:32N 55°60' E 012°45'0 0.0
2014-Sep-16 22:32N 55°60' E 012°45'0 0.0
2014-Sep-16 21:32N 55°60' E 012°45'0 0.0
2014-Sep-16 20:26N 55°60' E 012°45'0 0.0
2014-Sep-16 19:29N 55°60' E 012°45'0 0.0
2014-Sep-16 18:32N 55°60' E 012°45'0 0.0
2014-Sep-16 17:32N 55°60' E 012°45'0 0.0
2014-Sep-16 16:32N 55°60' E 012°45'0 0.0
2014-Sep-16 15:32N 55°60' E 012°45'0 0.0
2014-Sep-16 14:32N 55°60' E 012°45'0 0.0
2014-Sep-16 13:32N 55°60' E 012°45'0 0.0
2014-Sep-16 12:32N 55°60' E 012°45'0 0.0
2014-Sep-16 11:32N 55°60' E 012°45'0 0.0
2014-Sep-16 10:32N 55°60' E 012°45'4 4.4
2014-Sep-16 09:33N 55°55' E 012°42'0 0.3
2014-Sep-16 08:33N 55°56' E 012°42'0 0.3
2014-Sep-16 07:31N 55°56' E 012°42'0 0.2
2014-Sep-16 06:33N 55°56' E 012°42'4 3.5
2014-Sep-16 05:32N 55°60' E 012°45'0 0.0
2014-Sep-16 04:32N 55°60' E 012°45'0 0.0
2014-Sep-16 03:29N 55°60' E 012°45'0 0.0
2014-Sep-16 02:32N 55°60' E 012°45'0 0.0
2014-Sep-16 01:32N 55°60' E 012°45'0 0.0
2014-Sep-16 00:29N 55°60' E 012°45'0 0.0
2014-Sep-15 23:29N 55°60' E 012°45'0 0.0
2014-Sep-15 22:32N 55°60' E 012°45'0 0.0
2014-Sep-15 21:32N 55°60' E 012°45'0 0.0
2014-Sep-15 20:32N 55°60' E 012°45'0 0.0
2014-Sep-15 19:32N 55°60' E 012°45'0 0.0
2014-Sep-15 18:32N 55°60' E 012°45'0 0.0
2014-Sep-15 17:29N 55°60' E 012°45'0 0.0
2014-Sep-15 16:32N 55°60' E 012°45'0 0.0
2014-Sep-15 15:32N 55°60' E 012°45'0 0.0
2014-Sep-15 14:32N 55°60' E 012°45'0 0.0
2014-Sep-15 13:33N 55°60' E 012°45'0 0.0
2014-Sep-15 12:33N 55°60' E 012°45'0 0.0
2014-Sep-15 11:33N 55°60' E 012°45'0 0.0
2014-Sep-15 10:33N 55°60' E 012°45'0 0.0
2014-Sep-15 09:33N 55°60' E 012°45'0 0.0
2014-Sep-15 08:33N 55°60' E 012°45'0 0.0
2014-Sep-15 07:33N 55°60' E 012°45'0 0.0
2014-Sep-15 06:33N 55°60' E 012°45'0 0.0
2014-Sep-15 05:33N 55°60' E 012°45'0 0.0
2014-Sep-15 04:33N 55°60' E 012°45'0 0.0
2014-Sep-15 03:33N 55°60' E 012°45'0 0.0
2014-Sep-15 02:33N 55°60' E 012°45'0 0.0
2014-Sep-15 01:33N 55°60' E 012°45'0 0.0
2014-Sep-15 00:33N 55°60' E 012°45'0 0.0
2014-Sep-14 23:33N 55°60' E 012°45'0 0.0
2014-Sep-14 22:33N 55°60' E 012°45'0 0.0
2014-Sep-14 21:33N 55°60' E 012°45'0 0.0
2014-Sep-14 20:33N 55°60' E 012°45'0 0.0
2014-Sep-14 19:33N 55°60' E 012°45'0 0.0
2014-Sep-14 18:33N 55°60' E 012°45'0 0.0
2014-Sep-14 17:33N 55°60' E 012°45'0 0.0
2014-Sep-14 16:33N 55°60' E 012°45'0 0.0
2014-Sep-14 15:33N 55°60' E 012°45'4 4.3
2014-Sep-14 14:33N 55°56' E 012°41'1 1.1
2014-Sep-14 13:32N 55°56' E 012°43'0 0.3
2014-Sep-14 12:33N 55°55' E 012°44'1 1.4
2014-Sep-14 11:32N 55°56' E 012°42'4 3.6
2014-Sep-14 10:31N 55°60' E 012°45'4 3.7
2014-Sep-14 09:32N 55°56' E 012°41'1 0.7
2014-Sep-14 08:32N 55°57' E 012°42'1 1.3
2014-Sep-14 07:32N 55°58' E 012°42'1 0.6
2014-Sep-14 06:32N 55°59' E 012°42'2 1.5
2014-Sep-14 05:31N 55°60' E 012°45'0 0.0
2014-Sep-14 04:31N 55°60' E 012°45'0 0.0
2014-Sep-14 03:31N 55°60' E 012°45'0 0.0
2014-Sep-14 02:31N 55°60' E 012°45'0 0.0
2014-Sep-14 01:32N 55°60' E 012°45'0 0.0
2014-Sep-13 21:29N 55°60' E 012°45'0 0.0
2014-Sep-13 20:32N 55°60' E 012°45'0 0.0
2014-Sep-13 19:32N 55°60' E 012°45'0 0.0
2014-Sep-13 18:29N 55°60' E 012°45'  

Dump ship's entire track history